Accueil
METAR-TAF:

METAR-TAF

Aéroports :

Aéroport de Sarrebruck

Sarrebruck, Allemagne

latitude: 49-13N, longitude: 007-07E, altitude: 322 m

Observation

Le bulletin a été fait il y a 17 minutes, à 20:20 UTC
Vent 4 kt de est/nord-est, variant entre nord/nord-est et est
Température 10°C
Humidité 66%
Pression 1025 hPa
Visibilité 10 km ou plus
pas de nuages en-dessous de 1500 mètres et pas de cumulonimbus.

METAR: EDDR 212020Z 06004KT 020V080 CAVOK 10/04 Q1025 NOSIG

Heure: 22:37 (20:37 UTC)

Prévision

Le bulletin a été fait il y a 3 heures et 37 minutes, à 17:00 UTC
Prévision valable du 21 à 18 UTC au 22 à 18 UTC
Vent 7 kt de nord-est
Visibilité 10 km ou plus
pas de nuages en-dessous de 1500 mètres et pas de cumulonimbus.

TAF: EDDR 211700Z 2118/2218 05007KT CAVOK

Observations et prévisions météorologiques de plus de 4000 aéroports (messages METAR et TAF).

Les stations disponibles sont représentées par des disques jaunes et rouges sur la carte.

Passer la souris dessus pour voir le nom de la station.

Cliquer dessus pour voir les observations et prévisions météorologiques.

Pour changer de carte: cliquez sur les boutons verts avec une croix noire pour zoomer, sur le bouton vert avec un tiret pour effectuer un zoom arrière, ou sur les flèches vertes pour les cartes adjacentes.


METAR-TAF: